sensor_id;sensor_type;location;lat;lon;timestamp;pressure;altitude;pressure_sealevel;temperature;humidity
16777;BME280;8505;49.456;8.164;2023-02-11T00:01:11;101817.16;;;0.51;86.09
16777;BME280;8505;49.456;8.164;2023-02-11T00:03:39;101810.38;;;0.47;86.20
16777;BME280;8505;49.456;8.164;2023-02-11T00:06:07;101817.09;;;0.29;86.40
16777;BME280;8505;49.456;8.164;2023-02-11T00:08:35;101812.66;;;0.31;86.39
16777;BME280;8505;49.456;8.164;2023-02-11T00:11:03;101801.00;;;0.18;86.60
16777;BME280;8505;49.456;8.164;2023-02-11T00:13:31;101803.31;;;0.26;86.50
16777;BME280;8505;49.456;8.164;2023-02-11T00:15:58;101804.81;;;0.33;86.35
16777;BME280;8505;49.456;8.164;2023-02-11T00:18:28;101808.94;;;0.38;86.25
16777;BME280;8505;49.456;8.164;2023-02-11T00:20:55;101797.44;;;0.44;85.86
16777;BME280;8505;49.456;8.164;2023-02-11T00:23:23;101799.38;;;0.62;85.85
16777;BME280;8505;49.456;8.164;2023-02-11T00:25:50;101799.72;;;0.76;85.73
16777;BME280;8505;49.456;8.164;2023-02-11T00:28:18;101789.47;;;0.94;85.29
16777;BME280;8505;49.456;8.164;2023-02-11T00:30:53;101783.53;;;1.12;84.51
16777;BME280;8505;49.456;8.164;2023-02-11T00:33:21;101786.25;;;1.31;84.01
16777;BME280;8505;49.456;8.164;2023-02-11T00:35:50;101774.34;;;1.45;83.49
16777;BME280;8505;49.456;8.164;2023-02-11T00:38:18;101782.66;;;1.55;83.32
16777;BME280;8505;49.456;8.164;2023-02-11T00:40:47;101781.31;;;1.67;82.94
16777;BME280;8505;49.456;8.164;2023-02-11T00:43:14;101783.56;;;1.74;82.50
16777;BME280;8505;49.456;8.164;2023-02-11T00:45:42;101772.16;;;1.77;82.20
16777;BME280;8505;49.456;8.164;2023-02-11T00:48:10;101778.75;;;1.85;81.83
16777;BME280;8505;49.456;8.164;2023-02-11T00:50:37;101776.34;;;1.81;81.78
16777;BME280;8505;49.456;8.164;2023-02-11T00:53:06;101783.31;;;1.80;81.51
16777;BME280;8505;49.456;8.164;2023-02-11T00:55:34;101784.44;;;1.95;81.66
16777;BME280;8505;49.456;8.164;2023-02-11T00:58:02;101779.22;;;1.95;80.92
16777;BME280;8505;49.456;8.164;2023-02-11T01:00:29;101789.59;;;1.96;80.25
16777;BME280;8505;49.456;8.164;2023-02-11T01:02:57;101796.19;;;1.85;81.46
16777;BME280;8505;49.456;8.164;2023-02-11T01:05:24;101792.59;;;1.87;81.82
16777;BME280;8505;49.456;8.164;2023-02-11T01:07:52;101788.50;;;2.02;81.05
16777;BME280;8505;49.456;8.164;2023-02-11T01:10:21;101790.28;;;2.20;80.38
16777;BME280;8505;49.456;8.164;2023-02-11T01:12:49;101777.75;;;2.28;79.89
16777;BME280;8505;49.456;8.164;2023-02-11T01:15:18;101789.13;;;2.07;80.75
16777;BME280;8505;49.456;8.164;2023-02-11T01:17:46;101795.25;;;2.26;80.35
16777;BME280;8505;49.456;8.164;2023-02-11T01:20:16;101794.56;;;2.41;78.77
16777;BME280;8505;49.456;8.164;2023-02-11T01:22:44;101787.28;;;2.48;78.69
16777;BME280;8505;49.456;8.164;2023-02-11T01:25:12;101796.38;;;2.21;79.57
16777;BME280;8505;49.456;8.164;2023-02-11T01:27:41;101790.19;;;2.03;80.85
16777;BME280;8505;49.456;8.164;2023-02-11T01:30:12;101781.03;;;1.93;80.90
16777;BME280;8505;49.456;8.164;2023-02-11T01:32:40;101777.56;;;1.92;81.86
16777;BME280;8505;49.456;8.164;2023-02-11T01:35:08;101770.06;;;2.05;81.39
16777;BME280;8505;49.456;8.164;2023-02-11T01:37:36;101774.03;;;2.14;80.50
16777;BME280;8505;49.456;8.164;2023-02-11T01:40:06;101764.44;;;2.14;80.55
16777;BME280;8505;49.456;8.164;2023-02-11T01:42:34;101762.59;;;2.16;80.80
16777;BME280;8505;49.456;8.164;2023-02-11T01:48:04;101742.94;;;2.08;80.80
16777;BME280;8505;49.456;8.164;2023-02-11T01:50:32;101737.66;;;2.09;80.81
16777;BME280;8505;49.456;8.164;2023-02-11T01:53:00;101733.06;;;2.14;80.63
16777;BME280;8505;49.456;8.164;2023-02-11T01:55:50;101749.50;;;1.97;81.50
16777;BME280;8505;49.456;8.164;2023-02-11T01:58:38;101740.72;;;2.19;80.88
16777;BME280;8505;49.456;8.164;2023-02-11T02:01:10;101736.41;;;2.36;80.24
16777;BME280;8505;49.456;8.164;2023-02-11T02:03:42;101721.75;;;2.53;79.63
16777;BME280;8505;49.456;8.164;2023-02-11T02:06:15;101720.44;;;2.61;78.61
16777;BME280;8505;49.456;8.164;2023-02-11T02:08:50;101722.56;;;2.53;78.13
16777;BME280;8505;49.456;8.164;2023-02-11T02:11:20;101719.25;;;2.68;78.61
16777;BME280;8505;49.456;8.164;2023-02-11T02:13:48;101718.94;;;2.74;77.15
16777;BME280;8505;49.456;8.164;2023-02-11T02:16:17;101705.34;;;2.85;77.25
16777;BME280;8505;49.456;8.164;2023-02-11T02:18:55;101693.00;;;2.89;77.32
16777;BME280;8505;49.456;8.164;2023-02-11T02:24:34;101703.66;;;2.84;77.96
16777;BME280;8505;49.456;8.164;2023-02-11T02:27:20;101694.03;;;2.84;77.75
16777;BME280;8505;49.456;8.164;2023-02-11T02:30:07;101695.19;;;2.79;77.63
16777;BME280;8505;49.456;8.164;2023-02-11T02:32:48;101681.06;;;2.83;77.67
16777;BME280;8505;49.456;8.164;2023-02-11T02:35:25;101673.09;;;2.84;77.27
16777;BME280;8505;49.456;8.164;2023-02-11T02:37:59;101671.63;;;2.79;77.64
16777;BME280;8505;49.456;8.164;2023-02-11T02:40:31;101671.84;;;2.57;78.27
16777;BME280;8505;49.456;8.164;2023-02-11T02:43:02;101678.38;;;2.66;78.39
16777;BME280;8505;49.456;8.164;2023-02-11T02:45:31;101685.88;;;2.55;78.87
16777;BME280;8505;49.456;8.164;2023-02-11T02:48:00;101682.28;;;2.57;79.44
16777;BME280;8505;49.456;8.164;2023-02-11T02:50:30;101673.81;;;2.88;77.57
16777;BME280;8505;49.456;8.164;2023-02-11T02:53:10;101666.88;;;2.87;78.19
16777;BME280;8505;49.456;8.164;2023-02-11T02:55:53;101671.59;;;2.98;77.44
16777;BME280;8505;49.456;8.164;2023-02-11T02:58:54;101664.09;;;2.90;77.89
16777;BME280;8505;49.456;8.164;2023-02-11T03:01:36;101671.75;;;2.95;77.42
16777;BME280;8505;49.456;8.164;2023-02-11T03:04:16;101675.72;;;2.84;78.06
16777;BME280;8505;49.456;8.164;2023-02-11T03:06:52;101671.03;;;2.74;78.14
16777;BME280;8505;49.456;8.164;2023-02-11T03:09:25;101664.03;;;2.74;78.91
16777;BME280;8505;49.456;8.164;2023-02-11T03:11:56;101665.34;;;2.83;78.34
16777;BME280;8505;49.456;8.164;2023-02-11T03:14:25;101667.31;;;2.78;78.60
16777;BME280;8505;49.456;8.164;2023-02-11T03:16:57;101662.09;;;2.78;78.47
16777;BME280;8505;49.456;8.164;2023-02-11T03:19:29;101664.22;;;2.89;78.48
16777;BME280;8505;49.456;8.164;2023-02-11T03:22:01;101669.75;;;2.82;78.71
16777;BME280;8505;49.456;8.164;2023-02-11T03:24:34;101664.03;;;2.92;78.59
16777;BME280;8505;49.456;8.164;2023-02-11T03:27:08;101671.97;;;2.90;78.73
16777;BME280;8505;49.456;8.164;2023-02-11T03:29:41;101672.22;;;3.03;78.29
16777;BME280;8505;49.456;8.164;2023-02-11T03:32:13;101682.31;;;3.10;78.60
16777;BME280;8505;49.456;8.164;2023-02-11T03:34:47;101679.25;;;3.19;77.69
16777;BME280;8505;49.456;8.164;2023-02-11T03:37:18;101676.53;;;3.21;77.89
16777;BME280;8505;49.456;8.164;2023-02-11T03:39:53;101680.47;;;3.30;77.54
16777;BME280;8505;49.456;8.164;2023-02-11T03:42:23;101683.56;;;3.38;77.24
16777;BME280;8505;49.456;8.164;2023-02-11T03:44:57;101684.72;;;3.32;77.58
16777;BME280;8505;49.456;8.164;2023-02-11T03:47:27;101679.59;;;3.46;76.93
16777;BME280;8505;49.456;8.164;2023-02-11T03:49:58;101667.75;;;3.56;76.94
16777;BME280;8505;49.456;8.164;2023-02-11T03:52:28;101657.41;;;3.53;77.18
16777;BME280;8505;49.456;8.164;2023-02-11T03:54:58;101656.09;;;3.62;76.71
16777;BME280;8505;49.456;8.164;2023-02-11T03:57:27;101657.50;;;3.69;76.14
16777;BME280;8505;49.456;8.164;2023-02-11T03:59:56;101644.78;;;3.61;76.66
16777;BME280;8505;49.456;8.164;2023-02-11T04:02:27;101660.84;;;3.71;76.30
16777;BME280;8505;49.456;8.164;2023-02-11T04:04:57;101653.22;;;3.51;76.68
16777;BME280;8505;49.456;8.164;2023-02-11T04:07:25;101650.09;;;3.60;76.24
16777;BME280;8505;49.456;8.164;2023-02-11T04:09:53;101646.81;;;3.56;76.23
16777;BME280;8505;49.456;8.164;2023-02-11T04:12:21;101644.84;;;3.60;76.57
16777;BME280;8505;49.456;8.164;2023-02-11T04:14:49;101650.34;;;3.55;76.31
16777;BME280;8505;49.456;8.164;2023-02-11T04:17:17;101632.25;;;3.51;76.69
16777;BME280;8505;49.456;8.164;2023-02-11T04:19:45;101624.56;;;3.31;77.21
16777;BME280;8505;49.456;8.164;2023-02-11T04:22:14;101612.53;;;3.44;76.83
16777;BME280;8505;49.456;8.164;2023-02-11T04:24:41;101610.00;;;3.42;76.66
16777;BME280;8505;49.456;8.164;2023-02-11T04:27:09;101626.28;;;3.32;76.97
16777;BME280;8505;49.456;8.164;2023-02-11T04:29:37;101617.31;;;3.36;76.72
16777;BME280;8505;49.456;8.164;2023-02-11T04:32:04;101605.75;;;3.40;76.45
16777;BME280;8505;49.456;8.164;2023-02-11T04:34:32;101593.84;;;3.34;76.55
16777;BME280;8505;49.456;8.164;2023-02-11T04:37:00;101589.34;;;3.20;76.72
16777;BME280;8505;49.456;8.164;2023-02-11T04:39:29;101584.00;;;3.22;76.92
16777;BME280;8505;49.456;8.164;2023-02-11T04:41:56;101580.69;;;3.18;77.03
16777;BME280;8505;49.456;8.164;2023-02-11T04:44:24;101585.16;;;3.16;77.21
16777;BME280;8505;49.456;8.164;2023-02-11T04:46:53;101577.75;;;3.24;76.30
16777;BME280;8505;49.456;8.164;2023-02-11T04:49:20;101569.06;;;3.24;76.51
16777;BME280;8505;49.456;8.164;2023-02-11T04:51:48;101560.13;;;3.28;76.01
16777;BME280;8505;49.456;8.164;2023-02-11T04:54:16;101554.66;;;3.33;75.82
16777;BME280;8505;49.456;8.164;2023-02-11T04:56:45;101558.13;;;3.33;75.92
16777;BME280;8505;49.456;8.164;2023-02-11T04:59:13;101564.69;;;3.24;76.10
16777;BME280;8505;49.456;8.164;2023-02-11T05:01:41;101568.22;;;3.23;76.02
16777;BME280;8505;49.456;8.164;2023-02-11T05:04:08;101571.31;;;3.14;75.79
16777;BME280;8505;49.456;8.164;2023-02-11T05:06:37;101588.56;;;3.18;75.89
16777;BME280;8505;49.456;8.164;2023-02-11T05:09:04;101588.88;;;3.12;76.37
16777;BME280;8505;49.456;8.164;2023-02-11T05:11:32;101582.28;;;3.21;76.39
16777;BME280;8505;49.456;8.164;2023-02-11T05:14:03;101585.94;;;3.18;76.56
16777;BME280;8505;49.456;8.164;2023-02-11T05:16:31;101596.53;;;3.15;76.58
16777;BME280;8505;49.456;8.164;2023-02-11T05:18:59;101592.69;;;3.22;76.17
16777;BME280;8505;49.456;8.164;2023-02-11T05:21:27;101600.63;;;3.21;76.38
16777;BME280;8505;49.456;8.164;2023-02-11T05:23:55;101616.44;;;3.19;76.61
16777;BME280;8505;49.456;8.164;2023-02-11T05:26:22;101610.78;;;3.10;76.74
16777;BME280;8505;49.456;8.164;2023-02-11T05:28:50;101619.78;;;3.21;76.47
16777;BME280;8505;49.456;8.164;2023-02-11T05:31:19;101622.50;;;3.20;76.25
16777;BME280;8505;49.456;8.164;2023-02-11T05:33:47;101623.50;;;3.17;76.29
16777;BME280;8505;49.456;8.164;2023-02-11T05:36:14;101628.81;;;3.16;76.52
16777;BME280;8505;49.456;8.164;2023-02-11T05:38:42;101616.63;;;3.15;76.73
16777;BME280;8505;49.456;8.164;2023-02-11T05:41:10;101624.59;;;3.13;76.71
16777;BME280;8505;49.456;8.164;2023-02-11T05:43:38;101625.34;;;3.15;76.79
16777;BME280;8505;49.456;8.164;2023-02-11T05:46:06;101623.50;;;3.17;77.09
16777;BME280;8505;49.456;8.164;2023-02-11T05:48:35;101600.53;;;3.22;76.85
16777;BME280;8505;49.456;8.164;2023-02-11T05:51:03;101607.16;;;3.30;76.51
16777;BME280;8505;49.456;8.164;2023-02-11T05:53:31;101612.56;;;3.09;76.63
16777;BME280;8505;49.456;8.164;2023-02-11T05:55:58;101608.41;;;3.05;77.17
16777;BME280;8505;49.456;8.164;2023-02-11T05:58:26;101606.72;;;3.39;76.41
16777;BME280;8505;49.456;8.164;2023-02-11T06:00:54;101607.25;;;3.11;77.82
16777;BME280;8505;49.456;8.164;2023-02-11T06:03:22;101606.88;;;3.18;76.94
16777;BME280;8505;49.456;8.164;2023-02-11T06:05:51;101601.41;;;3.23;76.96
16777;BME280;8505;49.456;8.164;2023-02-11T06:08:18;101624.25;;;3.37;76.40
16777;BME280;8505;49.456;8.164;2023-02-11T06:10:46;101627.66;;;3.39;76.14
16777;BME280;8505;49.456;8.164;2023-02-11T06:13:14;101628.34;;;3.25;76.37
16777;BME280;8505;49.456;8.164;2023-02-11T06:15:44;101621.44;;;3.07;77.26
16777;BME280;8505;49.456;8.164;2023-02-11T06:18:11;101622.28;;;3.07;77.91
16777;BME280;8505;49.456;8.164;2023-02-11T06:20:39;101626.66;;;3.07;77.96
16777;BME280;8505;49.456;8.164;2023-02-11T06:23:08;101630.44;;;3.18;76.95
16777;BME280;8505;49.456;8.164;2023-02-11T06:25:36;101625.56;;;3.11;77.35
16777;BME280;8505;49.456;8.164;2023-02-11T06:28:03;101619.66;;;3.07;77.64
16777;BME280;8505;49.456;8.164;2023-02-11T06:30:31;101618.03;;;3.05;78.45
16777;BME280;8505;49.456;8.164;2023-02-11T06:32:59;101612.13;;;3.01;78.51
16777;BME280;8505;49.456;8.164;2023-02-11T06:35:26;101613.34;;;3.11;78.36
16777;BME280;8505;49.456;8.164;2023-02-11T06:37:54;101612.72;;;3.23;78.12
16777;BME280;8505;49.456;8.164;2023-02-11T06:40:23;101603.63;;;3.31;77.92
16777;BME280;8505;49.456;8.164;2023-02-11T06:42:50;101591.69;;;3.25;77.49
16777;BME280;8505;49.456;8.164;2023-02-11T06:45:18;101605.34;;;3.14;78.36
16777;BME280;8505;49.456;8.164;2023-02-11T06:47:46;101616.03;;;3.27;77.59
16777;BME280;8505;49.456;8.164;2023-02-11T06:50:14;101621.97;;;3.13;78.06
16777;BME280;8505;49.456;8.164;2023-02-11T06:52:41;101623.03;;;3.27;77.24
16777;BME280;8505;49.456;8.164;2023-02-11T06:55:09;101614.09;;;3.31;77.40
16777;BME280;8505;49.456;8.164;2023-02-11T06:57:38;101615.94;;;3.29;77.58
16777;BME280;8505;49.456;8.164;2023-02-11T07:00:07;101598.09;;;3.19;78.03
16777;BME280;8505;49.456;8.164;2023-02-11T07:02:35;101601.09;;;3.29;77.73
16777;BME280;8505;49.456;8.164;2023-02-11T07:05:04;101603.44;;;3.34;77.53
16777;BME280;8505;49.456;8.164;2023-02-11T07:07:32;101620.13;;;3.33;77.78
16777;BME280;8505;49.456;8.164;2023-02-11T07:10:00;101615.94;;;3.29;78.12
16777;BME280;8505;49.456;8.164;2023-02-11T07:12:29;101608.00;;;3.30;78.12
16777;BME280;8505;49.456;8.164;2023-02-11T07:14:59;101624.88;;;3.24;78.08
16777;BME280;8505;49.456;8.164;2023-02-11T07:17:26;101635.34;;;3.24;78.63
16777;BME280;8505;49.456;8.164;2023-02-11T07:19:54;101634.72;;;3.37;78.66
16777;BME280;8505;49.456;8.164;2023-02-11T07:22:22;101641.97;;;3.32;78.86
16777;BME280;8505;49.456;8.164;2023-02-11T07:24:49;101634.56;;;3.40;78.55
16777;BME280;8505;49.456;8.164;2023-02-11T07:27:17;101631.50;;;3.64;77.22
16777;BME280;8505;49.456;8.164;2023-02-11T07:29:44;101632.94;;;3.54;76.26
16777;BME280;8505;49.456;8.164;2023-02-11T07:32:15;101621.72;;;3.35;75.71
16777;BME280;8505;49.456;8.164;2023-02-11T07:34:42;101621.41;;;3.41;77.08
16777;BME280;8505;49.456;8.164;2023-02-11T07:37:10;101629.50;;;3.37;76.47
16777;BME280;8505;49.456;8.164;2023-02-11T07:39:38;101626.59;;;3.58;76.51
16777;BME280;8505;49.456;8.164;2023-02-11T07:42:05;101639.56;;;3.77;75.59
16777;BME280;8505;49.456;8.164;2023-02-11T07:44:33;101625.47;;;3.64;76.67
16777;BME280;8505;49.456;8.164;2023-02-11T07:47:02;101622.84;;;3.80;76.67
16777;BME280;8505;49.456;8.164;2023-02-11T07:49:31;101620.44;;;3.92;77.69
16777;BME280;8505;49.456;8.164;2023-02-11T07:51:59;101615.38;;;4.21;77.26
16777;BME280;8505;49.456;8.164;2023-02-11T07:54:26;101626.94;;;4.32;76.98
16777;BME280;8505;49.456;8.164;2023-02-11T07:56:54;101621.22;;;4.41;77.35
16777;BME280;8505;49.456;8.164;2023-02-11T07:59:21;101627.31;;;4.42;77.53
16777;BME280;8505;49.456;8.164;2023-02-11T08:01:50;101619.31;;;4.59;77.34
16777;BME280;8505;49.456;8.164;2023-02-11T08:04:18;101623.03;;;4.71;76.81
16777;BME280;8505;49.456;8.164;2023-02-11T08:06:47;101622.09;;;4.72;76.56
16777;BME280;8505;49.456;8.164;2023-02-11T08:09:15;101624.25;;;4.95;75.98
16777;BME280;8505;49.456;8.164;2023-02-11T08:11:43;101631.19;;;4.96;75.76
16777;BME280;8505;49.456;8.164;2023-02-11T08:14:11;101631.59;;;5.04;75.50
16777;BME280;8505;49.456;8.164;2023-02-11T08:16:39;101636.41;;;5.12;75.68
16777;BME280;8505;49.456;8.164;2023-02-11T08:19:10;101638.13;;;5.27;75.54
16777;BME280;8505;49.456;8.164;2023-02-11T08:21:39;101636.06;;;5.32;74.75
16777;BME280;8505;49.456;8.164;2023-02-11T08:24:08;101636.38;;;5.42;74.60
16777;BME280;8505;49.456;8.164;2023-02-11T08:26:37;101624.81;;;5.44;74.10
16777;BME280;8505;49.456;8.164;2023-02-11T08:29:06;101625.13;;;5.54;73.93
16777;BME280;8505;49.456;8.164;2023-02-11T08:31:36;101625.41;;;5.63;73.45
16777;BME280;8505;49.456;8.164;2023-02-11T08:34:05;101620.59;;;5.56;73.45
16777;BME280;8505;49.456;8.164;2023-02-11T08:36:34;101630.47;;;5.81;72.92
16777;BME280;8505;49.456;8.164;2023-02-11T08:39:04;101629.38;;;5.85;72.54
16777;BME280;8505;49.456;8.164;2023-02-11T08:41:51;101647.84;;;5.83;71.99
16777;BME280;8505;49.456;8.164;2023-02-11T08:44:20;101649.00;;;5.79;72.99
16777;BME280;8505;49.456;8.164;2023-02-11T08:46:48;101651.16;;;5.73;72.79
16777;BME280;8505;49.456;8.164;2023-02-11T08:49:17;101638.94;;;5.86;72.23
16777;BME280;8505;49.456;8.164;2023-02-11T08:51:45;101632.44;;;5.77;72.28
16777;BME280;8505;49.456;8.164;2023-02-11T08:54:14;101625.31;;;5.79;72.32
16777;BME280;8505;49.456;8.164;2023-02-11T08:56:42;101627.84;;;5.81;72.77
16777;BME280;8505;49.456;8.164;2023-02-11T08:59:13;101624.09;;;5.85;72.60
16777;BME280;8505;49.456;8.164;2023-02-11T09:01:43;101633.69;;;5.86;72.74
16777;BME280;8505;49.456;8.164;2023-02-11T09:04:12;101619.44;;;5.90;73.02
16777;BME280;8505;49.456;8.164;2023-02-11T09:06:40;101611.53;;;5.90;73.11
16777;BME280;8505;49.456;8.164;2023-02-11T09:09:10;101615.66;;;5.94;72.27
16777;BME280;8505;49.456;8.164;2023-02-11T09:11:40;101612.09;;;6.09;71.98
16777;BME280;8505;49.456;8.164;2023-02-11T09:14:17;101624.38;;;6.23;71.54
16777;BME280;8505;49.456;8.164;2023-02-11T09:16:46;101622.59;;;6.23;71.51
16777;BME280;8505;49.456;8.164;2023-02-11T09:19:14;101632.72;;;6.29;70.90
16777;BME280;8505;49.456;8.164;2023-02-11T09:21:41;101635.34;;;6.29;71.09
16777;BME280;8505;49.456;8.164;2023-02-11T09:24:09;101643.50;;;6.39;70.64
16777;BME280;8505;49.456;8.164;2023-02-11T09:26:41;101647.41;;;6.60;69.58
16777;BME280;8505;49.456;8.164;2023-02-11T09:29:09;101647.72;;;6.68;69.38
16777;BME280;8505;49.456;8.164;2023-02-11T09:31:38;101651.47;;;6.52;69.38
16777;BME280;8505;49.456;8.164;2023-02-11T09:34:06;101642.22;;;6.59;69.72
16777;BME280;8505;49.456;8.164;2023-02-11T09:36:36;101643.75;;;6.75;68.79
16777;BME280;8505;49.456;8.164;2023-02-11T09:39:06;101648.19;;;6.75;68.73
16777;BME280;8505;49.456;8.164;2023-02-11T09:41:48;101644.91;;;7.11;67.06
16777;BME280;8505;49.456;8.164;2023-02-11T09:44:22;101650.97;;;7.38;66.97
16777;BME280;8505;49.456;8.164;2023-02-11T09:46:54;101655.00;;;7.04;67.28
16777;BME280;8505;49.456;8.164;2023-02-11T09:49:26;101665.72;;;6.88;67.98
16777;BME280;8505;49.456;8.164;2023-02-11T09:52:02;101665.19;;;6.83;67.75
16777;BME280;8505;49.456;8.164;2023-02-11T09:54:36;101659.03;;;6.97;67.84
16777;BME280;8505;49.456;8.164;2023-02-11T09:57:08;101662.28;;;7.01;67.15
16777;BME280;8505;49.456;8.164;2023-02-11T09:59:53;101658.66;;;7.16;67.37
16777;BME280;8505;49.456;8.164;2023-02-11T10:02:28;101657.34;;;7.09;66.73
16777;BME280;8505;49.456;8.164;2023-02-11T10:05:14;101658.88;;;7.25;66.43
16777;BME280;8505;49.456;8.164;2023-02-11T10:07:50;101662.31;;;7.13;66.32
16777;BME280;8505;49.456;8.164;2023-02-11T10:10:34;101668.06;;;7.45;65.61
16777;BME280;8505;49.456;8.164;2023-02-11T10:13:24;101664.38;;;7.86;64.71
16777;BME280;8505;49.456;8.164;2023-02-11T10:16:03;101657.81;;;7.53;64.58
16777;BME280;8505;49.456;8.164;2023-02-11T10:18:48;101662.31;;;8.27;63.18
16777;BME280;8505;49.456;8.164;2023-02-11T10:21:28;101670.50;;;7.86;63.98
16777;BME280;8505;49.456;8.164;2023-02-11T10:24:01;101670.56;;;8.10;63.80
16777;BME280;8505;49.456;8.164;2023-02-11T10:26:32;101676.81;;;8.09;63.65
16777;BME280;8505;49.456;8.164;2023-02-11T10:29:05;101666.25;;;7.96;63.40
16777;BME280;8505;49.456;8.164;2023-02-11T10:31:41;101677.44;;;8.12;62.87
16777;BME280;8505;49.456;8.164;2023-02-11T10:34:13;101669.13;;;8.55;61.99
16777;BME280;8505;49.456;8.164;2023-02-11T10:36:41;101673.28;;;8.46;61.98
16777;BME280;8505;49.456;8.164;2023-02-11T10:39:11;101684.56;;;8.85;59.98
16777;BME280;8505;49.456;8.164;2023-02-11T10:41:42;101674.53;;;8.77;60.37
16777;BME280;8505;49.456;8.164;2023-02-11T10:44:20;101684.78;;;9.06;60.13
16777;BME280;8505;49.456;8.164;2023-02-11T10:46:49;101673.97;;;9.09;59.12
16777;BME280;8505;49.456;8.164;2023-02-11T10:49:36;101670.63;;;9.64;58.29
16777;BME280;8505;49.456;8.164;2023-02-11T10:52:18;101661.00;;;9.06;59.39
16777;BME280;8505;49.456;8.164;2023-02-11T10:55:08;101653.00;;;9.18;59.53
16777;BME280;8505;49.456;8.164;2023-02-11T10:57:47;101653.03;;;9.29;59.22
16777;BME280;8505;49.456;8.164;2023-02-11T11:00:32;101643.13;;;8.38;60.92
16777;BME280;8505;49.456;8.164;2023-02-11T11:03:04;101638.69;;;8.62;60.90
16777;BME280;8505;49.456;8.164;2023-02-11T11:05:35;101639.13;;;8.32;61.82
16777;BME280;8505;49.456;8.164;2023-02-11T11:08:05;101640.69;;;8.35;61.80
16777;BME280;8505;49.456;8.164;2023-02-11T11:10:37;101648.59;;;8.22;61.98
16777;BME280;8505;49.456;8.164;2023-02-11T11:13:29;101642.97;;;8.39;61.42
16777;BME280;8505;49.456;8.164;2023-02-11T11:16:19;101650.38;;;8.71;60.71
16777;BME280;8505;49.456;8.164;2023-02-11T11:18:49;101662.63;;;8.72;60.47
16777;BME280;8505;49.456;8.164;2023-02-11T11:21:21;101670.88;;;9.15;59.22
16777;BME280;8505;49.456;8.164;2023-02-11T11:23:54;101667.75;;;9.56;57.98
16777;BME280;8505;49.456;8.164;2023-02-11T11:26:24;101670.97;;;9.48;58.17
16777;BME280;8505;49.456;8.164;2023-02-11T11:28:55;101664.66;;;9.73;57.02
16777;BME280;8505;49.456;8.164;2023-02-11T11:31:27;101674.91;;;10.11;56.21
16777;BME280;8505;49.456;8.164;2023-02-11T11:33:58;101672.84;;;10.03;56.15
16777;BME280;8505;49.456;8.164;2023-02-11T11:36:35;101687.38;;;9.29;58.90
16777;BME280;8505;49.456;8.164;2023-02-11T11:39:22;101685.91;;;9.60;58.17
16777;BME280;8505;49.456;8.164;2023-02-11T11:41:53;101685.28;;;9.57;57.84
16777;BME280;8505;49.456;8.164;2023-02-11T11:44:27;101687.72;;;9.71;57.40
16777;BME280;8505;49.456;8.164;2023-02-11T11:50:04;101679.66;;;8.68;61.08
16777;BME280;8505;49.456;8.164;2023-02-11T11:52:44;101682.09;;;8.58;61.49
16777;BME280;8505;49.456;8.164;2023-02-11T11:55:17;101686.09;;;8.76;61.52
16777;BME280;8505;49.456;8.164;2023-02-11T11:57:47;101688.38;;;8.81;60.79
16777;BME280;8505;49.456;8.164;2023-02-11T12:00:22;101680.47;;;8.81;61.10
16777;BME280;8505;49.456;8.164;2023-02-11T12:03:22;101677.56;;;9.08;60.30
16777;BME280;8505;49.456;8.164;2023-02-11T12:06:06;101674.81;;;8.62;61.56
16777;BME280;8505;49.456;8.164;2023-02-11T12:08:45;101678.38;;;8.73;61.73
16777;BME280;8505;49.456;8.164;2023-02-11T12:11:24;101685.44;;;8.97;60.94
16777;BME280;8505;49.456;8.164;2023-02-11T12:14:07;101685.25;;;9.34;59.90
16777;BME280;8505;49.456;8.164;2023-02-11T12:16:45;101676.28;;;9.13;59.92
16777;BME280;8505;49.456;8.164;2023-02-11T12:19:42;101673.31;;;9.29;59.92
16777;BME280;8505;49.456;8.164;2023-02-11T12:22:25;101661.06;;;8.93;60.51
16777;BME280;8505;49.456;8.164;2023-02-11T12:25:11;101657.81;;;9.24;59.89
16777;BME280;8505;49.456;8.164;2023-02-11T12:27:49;101666.50;;;9.03;60.15
16777;BME280;8505;49.456;8.164;2023-02-11T12:30:37;101662.13;;;8.90;60.69
16777;BME280;8505;49.456;8.164;2023-02-11T12:33:14;101663.34;;;8.98;60.82
16777;BME280;8505;49.456;8.164;2023-02-11T12:35:51;101662.41;;;9.33;60.34
16777;BME280;8505;49.456;8.164;2023-02-11T12:41:32;101669.06;;;9.50;59.13
16777;BME280;8505;49.456;8.164;2023-02-11T12:44:25;101659.19;;;9.41;59.33
16777;BME280;8505;49.456;8.164;2023-02-11T12:47:07;101657.09;;;9.33;59.64
16777;BME280;8505;49.456;8.164;2023-02-11T12:49:49;101656.19;;;8.76;60.92
16777;BME280;8505;49.456;8.164;2023-02-11T12:52:31;101668.44;;;9.01;61.46
16777;BME280;8505;49.456;8.164;2023-02-11T12:55:06;101655.97;;;9.14;60.65
16777;BME280;8505;49.456;8.164;2023-02-11T12:57:38;101661.72;;;9.08;61.45
16777;BME280;8505;49.456;8.164;2023-02-11T13:00:14;101652.78;;;8.98;61.89
16777;BME280;8505;49.456;8.164;2023-02-11T13:02:48;101659.72;;;9.22;61.71
16777;BME280;8505;49.456;8.164;2023-02-11T13:05:26;101657.94;;;8.88;62.21
16777;BME280;8505;49.456;8.164;2023-02-11T13:08:01;101657.53;;;8.81;62.66
16777;BME280;8505;49.456;8.164;2023-02-11T13:10:33;101655.72;;;8.82;63.66
16777;BME280;8505;49.456;8.164;2023-02-11T13:13:12;101657.25;;;8.73;63.92
16777;BME280;8505;49.456;8.164;2023-02-11T13:15:46;101655.94;;;8.79;63.55
16777;BME280;8505;49.456;8.164;2023-02-11T13:18:31;101654.09;;;8.68;64.24
16777;BME280;8505;49.456;8.164;2023-02-11T13:21:27;101669.06;;;8.44;64.65
16777;BME280;8505;49.456;8.164;2023-02-11T13:24:03;101663.97;;;8.53;64.61
16777;BME280;8505;49.456;8.164;2023-02-11T13:26:40;101671.94;;;8.65;64.30
16777;BME280;8505;49.456;8.164;2023-02-11T13:29:21;101659.59;;;8.65;64.92
16777;BME280;8505;49.456;8.164;2023-02-11T13:31:53;101657.03;;;8.76;64.73
16777;BME280;8505;49.456;8.164;2023-02-11T13:34:25;101654.88;;;8.58;65.37
16777;BME280;8505;49.456;8.164;2023-02-11T13:36:54;101658.53;;;8.68;64.50
16777;BME280;8505;49.456;8.164;2023-02-11T13:39:22;101654.19;;;8.43;65.71
16777;BME280;8505;49.456;8.164;2023-02-11T13:42:01;101660.94;;;8.34;65.68
16777;BME280;8505;49.456;8.164;2023-02-11T13:44:32;101659.41;;;8.06;67.61
16777;BME280;8505;49.456;8.164;2023-02-11T13:47:03;101667.84;;;7.99;67.66